Time;durP1;ratioP1;P1;durP2;ratioP2;P2;SDS_P1;SDS_P2;PMS_P1;PMS_P2;Temp;Humidity;BMP_temperature;BMP_pressure;BME280_temperature;BME280_humidity;BME280_pressure;Samples;Min_cycle;Max_cycle;Signal;HPM_P1;HPM_P2
2023/07/17 00:00:03;;;;;;;7.20;4.70;;;19.50;1.00;;;;;;5037461;28;20479;-81
2023/07/17 00:02:31;;;;;;;7.60;4.30;;;19.40;1.00;;;;;;5037191;28;20505;-80
2023/07/17 00:04:58;;;;;;;9.87;4.47;;;19.40;1.00;;;;;;5038118;28;20452;-81
2023/07/17 00:07:25;;;;;;;5.30;4.00;;;19.30;85.30;;;;;;5036450;28;20448;-80
2023/07/17 00:09:52;;;;;;;6.50;4.07;;;19.30;99.90;;;;;;5037447;28;20476;-78
2023/07/17 00:12:19;;;;;;;6.50;4.50;;;19.20;1.00;;;;;;5036875;28;20556;-80
2023/07/17 00:14:46;;;;;;;4.93;3.80;;;19.20;18.10;;;;;;5037267;28;20488;-80
2023/07/17 00:17:13;;;;;;;6.20;4.37;;;19.20;1.00;;;;;;5036718;28;20548;-80
2023/07/17 00:19:41;;;;;;;9.10;4.33;;;19.10;99.90;;;;;;5037588;28;20448;-78
2023/07/17 00:22:08;;;;;;;6.73;4.30;;;19.10;1.00;;;;;;5036860;28;20551;-80
2023/07/17 00:24:35;;;;;;;5.87;3.93;;;19.10;99.90;;;;;;5037343;28;20552;-81
2023/07/17 00:27:02;;;;;;;5.97;4.30;;;19.10;99.90;;;;;;5035924;28;20457;-81
2023/07/17 00:29:29;;;;;;;5.90;3.60;;;19.10;1.00;;;;;;5036791;28;20540;-81
2023/07/17 00:31:56;;;;;;;7.97;4.33;;;19.10;99.90;;;;;;5037545;28;20875;-80
2023/07/17 00:34:23;;;;;;;6.40;4.17;;;19.20;99.90;;;;;;5037830;28;20480;-81
2023/07/17 00:36:52;;;;;;;6.33;3.40;;;19.20;1.00;;;;;;5036813;28;20448;-81
2023/07/17 00:39:19;;;;;;;5.90;3.80;;;19.20;99.90;;;;;;5037726;28;20459;-81
2023/07/17 00:41:46;;;;;;;5.70;3.27;;;19.20;99.90;;;;;;5037294;28;20456;-79
2023/07/17 00:44:13;;;;;;;7.73;3.73;;;19.30;99.90;;;;;;5037698;28;20449;-79
2023/07/17 00:46:40;;;;;;;6.87;3.60;;;19.20;1.00;;;;;;5036688;28;20455;-81
2023/07/17 00:49:09;;;;;;;5.17;3.40;;;19.10;1.00;;;;;;5037208;28;20450;-81
2023/07/17 00:51:37;;;;;;;7.27;3.60;;;19.10;1.00;;;;;;5037013;28;20448;-80
2023/07/17 00:54:06;;;;;;;6.93;3.60;;;19.10;1.00;;;;;;5036997;28;20488;-80
2023/07/17 00:56:34;;;;;;;7.20;3.80;;;19.10;1.00;;;;;;5037619;28;20527;-81
2023/07/17 00:59:01;;;;;;;5.30;3.40;;;19.10;1.00;;;;;;5041612;28;20555;-80
2023/07/17 01:01:28;;;;;;;3.47;2.33;;;19.10;99.90;;;;;;5037441;28;20455;-79
2023/07/17 01:03:56;;;;;;;3.70;2.33;;;19.20;99.90;;;;;;5037657;28;20473;-80
2023/07/17 01:06:23;;;;;;;4.40;2.63;;;19.20;96.20;;;;;;5036674;28;20511;-80
2023/07/17 01:08:50;;;;;;;6.73;2.77;;;19.20;99.90;;;;;;5037112;28;20457;-81
2023/07/17 01:11:19;;;;;;;3.90;2.17;;;19.30;99.90;;;;;;5036816;28;20453;-80
2023/07/17 01:13:46;;;;;;;5.00;2.93;;;19.40;1.00;;;;;;5043642;28;20496;-81
2023/07/17 01:16:14;;;;;;;6.20;3.10;;;19.40;22.50;;;;;;5046874;28;20459;-79
2023/07/17 01:18:41;;;;;;;4.53;2.03;;;19.40;1.00;;;;;;5046239;28;20461;-80
2023/07/17 01:21:13;;;;;;;5.13;2.93;;;19.40;1.00;;;;;;5036212;28;20453;-80
2023/07/17 01:23:41;;;;;;;4.00;2.30;;;19.40;17.60;;;;;;5036437;28;20479;-79
2023/07/17 01:26:12;;;;;;;3.60;2.10;;;19.30;1.00;;;;;;5035700;28;20984;-80
2023/07/17 01:28:40;;;;;;;5.60;2.93;;;19.30;1.00;;;;;;5037133;28;20455;-80
2023/07/17 01:31:06;;;;;;;4.57;2.50;;;19.20;99.90;;;;;;5037096;28;20452;-81
2023/07/17 01:33:33;;;;;;;5.50;2.57;;;19.20;99.90;;;;;;5036350;28;20491;-81
2023/07/17 01:36:01;;;;;;;3.13;2.00;;;19.10;1.00;;;;;;5036044;28;20441;-81
2023/07/17 01:38:28;;;;;;;4.27;2.47;;;19.10;70.50;;;;;;5036132;28;20452;-80
2023/07/17 01:40:56;;;;;;;4.40;3.07;;;19.00;99.90;;;;;;5036676;28;20535;-81
2023/07/17 01:43:24;;;;;;;4.70;2.77;;;19.00;99.90;;;;;;5036714;28;20484;-81
2023/07/17 01:45:51;;;;;;;5.10;2.53;;;18.80;17.30;;;;;;5036049;28;20461;-81
2023/07/17 01:48:18;;;;;;;4.23;2.60;;;18.80;1.00;;;;;;5036562;28;20441;-81
2023/07/17 01:50:45;;;;;;;3.83;2.60;;;18.80;99.90;;;;;;5035484;28;20522;-80
2023/07/17 01:53:12;;;;;;;4.47;2.80;;;18.90;1.00;;;;;;5036754;28;21213;-80
2023/07/17 01:55:39;;;;;;;5.10;3.53;;;18.90;1.00;;;;;;5034981;28;20484;-81
2023/07/17 01:58:07;;;;;;;6.77;3.77;;;18.80;1.00;;;;;;5042885;28;20515;-80
2023/07/17 02:00:35;;;;;;;4.73;3.10;;;18.90;1.00;;;;;;5045321;28;20547;-79
2023/07/17 02:03:02;;;;;;;4.97;3.47;;;18.90;99.90;;;;;;5045016;28;20469;-79
2023/07/17 02:05:30;;;;;;;5.03;3.30;;;18.90;1.00;;;;;;5041096;28;20542;-80
2023/07/17 02:07:57;;;;;;;3.93;3.20;;;18.90;1.00;;;;;;5037417;28;20453;-80
2023/07/17 02:10:24;;;;;;;4.30;3.63;;;18.90;99.90;;;;;;5036965;28;20535;-81
2023/07/17 02:12:51;;;;;;;5.13;3.23;;;18.90;1.00;;;;;;5037549;28;20858;-80
2023/07/17 02:15:19;;;;;;;5.37;3.03;;;18.80;1.00;;;;;;5036370;28;20863;-81
2023/07/17 02:17:46;;;;;;;6.33;2.97;;;18.80;99.90;;;;;;5035947;28;20525;-80
2023/07/17 02:20:13;;;;;;;9.10;3.80;;;18.80;99.90;;;;;;5036324;28;20449;-80
2023/07/17 02:22:40;;;;;;;4.60;3.10;;;18.70;1.00;;;;;;5036316;28;20509;-80
2023/07/17 02:25:08;;;;;;;4.80;2.70;;;18.70;99.90;;;;;;5035769;28;20973;-79
2023/07/17 02:27:35;;;;;;;6.20;3.50;;;18.80;99.90;;;;;;5035863;28;20452;-81
2023/07/17 02:30:02;;;;;;;7.80;2.90;;;18.70;99.90;;;;;;5036414;28;20536;-80
2023/07/17 02:32:31;;;;;;;3.87;2.70;;;18.70;99.90;;;;;;5036944;28;20477;-80
2023/07/17 02:34:58;;;;;;;4.33;2.57;;;18.80;99.90;;;;;;5036568;28;20494;-81
2023/07/17 02:37:25;;;;;;;4.43;2.37;;;18.70;99.90;;;;;;5035169;28;20453;-80
2023/07/17 02:39:52;;;;;;;4.03;2.47;;;18.70;1.00;;;;;;5035980;28;20467;-80
2023/07/17 02:42:19;;;;;;;6.37;2.50;;;18.70;1.00;;;;;;5035887;28;20494;-80
2023/07/17 02:44:47;;;;;;;4.93;2.63;;;18.70;99.90;;;;;;5035940;28;20532;-81
2023/07/17 02:47:14;;;;;;;5.30;2.77;;;18.70;1.00;;;;;;5034880;28;20814;-80
2023/07/17 02:49:43;;;;;;;6.00;2.57;;;18.60;99.90;;;;;;5035886;28;20445;-80
2023/07/17 02:52:10;;;;;;;6.23;2.87;;;18.60;99.90;;;;;;5036305;28;20471;-79
2023/07/17 02:54:37;;;;;;;4.73;3.57;;;18.70;99.90;;;;;;5030322;28;20493;-79
2023/07/17 02:57:04;;;;;;;4.77;2.70;;;18.60;99.90;;;;;;5033814;28;20498;-80
2023/07/17 02:59:31;;;;;;;7.07;2.40;;;18.60;99.90;;;;;;5035241;28;20456;-81
2023/07/17 03:01:58;;;;;;;5.37;2.53;;;18.50;1.00;;;;;;5037206;28;20490;-81
2023/07/17 03:04:25;;;;;;;3.33;1.77;;;18.60;99.90;;;;;;5037069;28;20452;-80
2023/07/17 03:06:53;;;;;;;3.90;2.30;;;18.60;99.90;;;;;;5038341;28;20443;-80
2023/07/17 03:09:20;;;;;;;5.10;2.23;;;18.60;99.90;;;;;;5039511;28;20628;-81
2023/07/17 03:11:47;;;;;;;3.50;1.97;;;18.50;1.00;;;;;;5032991;28;20456;-81
2023/07/17 03:14:14;;;;;;;5.43;2.10;;;18.50;1.00;;;;;;5038259;28;20492;-79
2023/07/17 03:16:41;;;;;;;3.13;2.23;;;18.50;1.00;;;;;;5037623;28;20445;-80
2023/07/17 03:19:08;;;;;;;2.83;1.77;;;18.40;13.70;;;;;;5034172;28;20510;-81
2023/07/17 03:21:35;;;;;;;3.50;1.67;;;18.40;99.90;;;;;;5037563;28;20539;-79
2023/07/17 03:24:03;;;;;;;2.87;2.00;;;18.50;99.90;;;;;;5037235;28;20482;-79
2023/07/17 03:26:30;;;;;;;3.37;2.07;;;18.30;1.00;;;;;;5036400;28;20466;-79
2023/07/17 03:28:57;;;;;;;3.70;1.90;;;18.30;99.90;;;;;;5037963;28;20463;-79
2023/07/17 03:31:24;;;;;;;3.97;2.10;;;18.30;1.00;;;;;;5037076;28;20509;-80
2023/07/17 03:33:50;;;;;;;3.20;2.00;;;18.30;99.90;;;;;;5036821;28;20469;-80
2023/07/17 03:36:17;;;;;;;7.17;2.77;;;18.30;1.00;;;;;;5036703;28;20547;-80
2023/07/17 03:38:44;;;;;;;4.27;1.93;;;18.30;99.90;;;;;;5037538;28;20462;-79
2023/07/17 03:41:12;;;;;;;3.33;1.80;;;18.30;99.90;;;;;;5036875;28;20458;-81
2023/07/17 03:43:39;;;;;;;3.60;1.93;;;18.30;1.00;;;;;;5036143;28;20502;-80
2023/07/17 03:46:06;;;;;;;3.20;2.20;;;18.20;1.00;;;;;;5032791;28;20823;-80
2023/07/17 03:48:32;;;;;;;5.77;1.90;;;18.20;1.00;;;;;;5031546;28;20541;-82
2023/07/17 03:50:59;;;;;;;3.30;1.73;;;18.20;99.90;;;;;;5036974;28;20951;-81
2023/07/17 03:53:26;;;;;;;3.53;1.83;;;18.10;1.00;;;;;;5036921;28;20462;-80
2023/07/17 03:55:53;;;;;;;5.20;2.40;;;18.10;99.90;;;;;;5035346;28;20871;-80
2023/07/17 03:58:21;;;;;;;2.63;1.80;;;18.10;99.90;;;;;;5036926;28;20448;-80
2023/07/17 04:00:48;;;;;;;5.20;1.90;;;18.00;25.70;;;;;;5033714;28;20453;-80
2023/07/17 04:03:15;;;;;;;3.43;1.90;;;18.00;11.90;;;;;;5035881;28;20472;-79
2023/07/17 04:05:43;;;;;;;2.67;1.90;;;18.00;1.00;;;;;;5035783;28;20977;-79
2023/07/17 04:08:10;;;;;;;3.07;1.90;;;17.90;99.90;;;;;;5036404;28;20480;-80
2023/07/17 04:10:36;;;;;;;3.70;1.83;;;17.80;99.90;;;;;;5033937;28;20452;-80
2023/07/17 04:13:03;;;;;;;5.70;2.27;;;17.90;1.00;;;;;;5035594;28;20472;-78
2023/07/17 04:15:32;;;;;;;3.47;1.70;;;17.70;99.90;;;;;;5034823;28;20884;-80
2023/07/17 04:17:58;;;;;;;5.57;1.93;;;17.60;99.90;;;;;;5035530;28;20449;-79
2023/07/17 04:20:25;;;;;;;4.37;1.90;;;17.70;99.90;;;;;;5035227;28;20557;-80
2023/07/17 04:22:52;;;;;;;2.37;1.80;;;17.60;1.00;;;;;;5035571;28;20473;-79
2023/07/17 04:25:19;;;;;;;3.37;1.80;;;17.70;99.90;;;;;;5035727;28;21007;-78
2023/07/17 04:27:46;;;;;;;6.30;2.63;;;17.70;99.90;;;;;;5036475;28;20452;-78
2023/07/17 04:30:13;;;;;;;3.20;2.00;;;17.70;1.00;;;;;;5035920;28;20830;-79
2023/07/17 04:32:41;;;;;;;3.20;1.70;;;17.70;1.00;;;;;;5035847;28;20478;-79
2023/07/17 04:35:09;;;;;;;6.70;3.23;;;17.70;99.90;;;;;;5035489;28;20945;-78
2023/07/17 04:37:35;;;;;;;4.00;2.13;;;17.60;1.00;;;;;;5045810;28;20750;-78
2023/07/17 04:40:03;;;;;;;3.97;2.13;;;17.70;1.00;;;;;;5045541;28;20570;-78
2023/07/17 04:42:30;;;;;;;5.03;2.10;;;17.70;1.00;;;;;;5042105;28;20499;-78
2023/07/17 04:44:56;;;;;;;4.50;2.17;;;17.70;1.00;;;;;;5036011;28;20441;-79
2023/07/17 04:47:23;;;;;;;3.17;2.10;;;17.80;1.00;;;;;;5035114;28;20448;-78
2023/07/17 04:49:53;;;;;;;2.60;1.80;;;17.80;2.60;;;;;;5035685;28;20458;-79
2023/07/17 04:52:19;;;;;;;3.80;2.13;;;17.80;1.00;;;;;;5035874;28;20478;-79
2023/07/17 04:54:46;;;;;;;3.30;2.50;;;17.80;1.00;;;;;;5035484;28;20487;-79
2023/07/17 04:57:13;;;;;;;3.80;1.80;;;17.80;1.00;;;;;;5034122;28;20480;-79
2023/07/17 04:59:40;;;;;;;4.13;2.20;;;17.90;1.00;;;;;;5035130;28;20454;-79
2023/07/17 05:02:07;;;;;;;3.70;2.13;;;17.90;1.00;;;;;;5034736;28;21111;-79
2023/07/17 05:04:33;;;;;;;4.10;2.27;;;17.90;99.90;;;;;;5034455;28;20463;-78
2023/07/17 05:07:02;;;;;;;3.60;1.87;;;17.90;1.00;;;;;;5033159;28;20841;-77
2023/07/17 05:09:29;;;;;;;5.43;2.20;;;17.80;1.00;;;;;;5010461;28;21345;-77
2023/07/17 05:11:56;;;;;;;4.70;2.57;;;17.40;1.00;;;;;;5031444;28;20457;-76
2023/07/17 05:14:23;;;;;;;5.23;2.30;;;17.80;1.00;;;;;;5029789;28;20450;-76
2023/07/17 05:16:50;;;;;;;4.10;1.97;;;17.80;1.00;;;;;;5005913;28;21018;-75
2023/07/17 05:19:16;;;;;;;6.00;2.50;;;17.80;1.00;;;;;;5020816;28;20908;-76
2023/07/17 05:21:43;;;;;;;7.97;2.40;;;17.80;1.00;;;;;;5030214;28;20552;-77
2023/07/17 05:24:11;;;;;;;4.20;2.00;;;17.80;1.00;;;;;;5030655;28;20957;-76
2023/07/17 05:26:38;;;;;;;7.93;2.27;;;17.80;1.00;;;;;;5022190;28;20464;-75
2023/07/17 05:29:05;;;;;;;4.30;2.20;;;17.90;1.00;;;;;;5024316;28;20940;-76
2023/07/17 05:31:32;;;;;;;3.27;2.40;;;17.90;1.00;;;;;;5030079;28;20458;-76
2023/07/17 05:33:59;;;;;;;11.07;2.47;;;17.90;99.90;;;;;;5030785;28;20476;-77
2023/07/17 05:36:25;;;;;;;5.20;2.17;;;17.90;1.00;;;;;;5029723;28;20495;-76
2023/07/17 05:38:52;;;;;;;3.43;2.00;;;17.90;99.90;;;;;;5031544;28;20456;-76
2023/07/17 05:41:20;;;;;;;5.20;2.60;;;17.90;99.90;;;;;;5041219;28;20457;-76
2023/07/17 05:43:47;;;;;;;5.87;2.20;;;18.00;99.90;;;;;;5068526;22;20862;-78
2023/07/17 05:46:14;;;;;;;5.50;3.13;;;18.00;99.90;;;;;;5055243;28;20443;-80
2023/07/17 05:48:41;;;;;;;6.00;2.23;;;18.00;1.00;;;;;;5055616;28;20531;-80
2023/07/17 05:51:08;;;;;;;5.00;3.23;;;18.00;1.00;;;;;;5057094;28;20461;-80
2023/07/17 05:53:35;;;;;;;5.80;2.77;;;18.00;1.00;;;;;;5056582;28;20495;-79
2023/07/17 05:56:02;;;;;;;6.40;2.80;;;18.00;99.90;;;;;;5056067;28;20513;-78
2023/07/17 05:58:31;;;;;;;5.50;2.83;;;18.10;99.90;;;;;;5055520;28;20541;-79
2023/07/17 06:00:57;;;;;;;5.03;2.70;;;18.20;1.00;;;;;;5055326;28;20565;-79
2023/07/17 06:03:25;;;;;;;5.47;2.83;;;18.20;99.90;;;;;;5053339;28;20491;-77
2023/07/17 06:05:52;;;;;;;4.87;2.50;;;18.20;9.70;;;;;;5054568;28;20459;-77
2023/07/17 06:08:19;;;;;;;6.13;3.43;;;18.20;99.90;;;;;;5055209;28;20451;-79
2023/07/17 06:10:46;;;;;;;6.80;3.47;;;18.20;99.90;;;;;;5055237;28;20455;-77
2023/07/17 06:13:14;;;;;;;7.17;2.93;;;18.30;99.90;;;;;;5054652;28;20474;-77
2023/07/17 06:15:42;;;;;;;6.80;2.50;;;18.40;1.00;;;;;;5056371;28;20475;-78
2023/07/17 06:18:09;;;;;;;6.40;3.50;;;18.40;1.00;;;;;;5056787;28;20516;-78
2023/07/17 06:20:35;;;;;;;8.10;3.90;;;18.40;1.00;;;;;;5057112;28;20900;-78
2023/07/17 06:23:02;;;;;;;6.10;3.80;;;18.30;1.00;;;;;;5057416;28;20555;-79
2023/07/17 06:25:29;;;;;;;6.93;3.67;;;18.40;99.90;;;;;;5057656;28;20452;-78
2023/07/17 06:27:56;;;;;;;6.40;3.60;;;18.40;18.90;;;;;;5061813;28;20486;-78
2023/07/17 06:30:23;;;;;;;6.47;3.83;;;18.40;99.90;;;;;;5062130;28;20491;-77
2023/07/17 06:32:51;;;;;;;14.13;4.40;;;18.30;99.90;;;;;;5057718;28;20556;-78
2023/07/17 06:35:18;;;;;;;11.23;4.20;;;18.40;1.00;;;;;;5058659;28;20491;-79
2023/07/17 06:37:45;;;;;;;7.83;4.30;;;18.40;99.90;;;;;;5071585;28;20471;-79
2023/07/17 06:40:13;;;;;;;7.83;4.47;;;18.40;99.90;;;;;;5072561;28;20458;-79
2023/07/17 06:42:40;;;;;;;6.03;4.10;;;18.50;1.00;;;;;;5066529;28;20450;-76
2023/07/17 06:45:08;;;;;;;7.77;4.57;;;18.50;1.00;;;;;;5064409;28;20451;-76
2023/07/17 06:47:35;;;;;;;8.23;3.63;;;18.50;99.90;;;;;;5061442;28;20462;-79
2023/07/17 06:50:04;;;;;;;6.90;4.07;;;18.70;70.30;;;;;;5064672;28;20454;-78
2023/07/17 06:52:30;;;;;;;11.93;4.80;;;18.70;99.90;;;;;;5066335;28;20943;-78
2023/07/17 06:54:57;;;;;;;8.23;4.80;;;18.70;1.00;;;;;;5065544;28;20667;-77
2023/07/17 06:57:24;;;;;;;8.70;4.90;;;18.80;99.90;;;;;;5059311;28;20554;-78
2023/07/17 06:59:51;;;;;;;8.40;4.67;;;18.80;99.90;;;;;;5059784;28;20898;-78
2023/07/17 07:02:18;;;;;;;5.87;4.27;;;18.80;99.90;;;;;;5068148;28;20451;-79
2023/07/17 07:04:44;;;;;;;9.80;5.00;;;18.80;99.90;;;;;;5067456;28;21123;-78
2023/07/17 07:07:13;;;;;;;10.10;4.80;;;18.90;99.90;;;;;;5068198;28;20450;-79
2023/07/17 07:09:39;;;;;;;7.63;4.63;;;19.00;99.90;;;;;;5061974;28;20456;-79
2023/07/17 07:12:07;;;;;;;8.63;5.50;;;19.00;15.10;;;;;;5064917;28;20447;-79
2023/07/17 07:14:34;;;;;;;7.17;4.70;;;19.10;51.10;;;;;;5060838;28;20477;-78
2023/07/17 07:17:01;;;;;;;13.23;4.70;;;19.00;1.00;;;;;;5062072;28;20581;-79
2023/07/17 07:19:28;;;;;;;8.00;5.07;;;19.00;1.00;;;;;;5066429;28;20446;-77
2023/07/17 07:21:55;;;;;;;12.20;4.83;;;19.10;1.00;;;;;;5064853;28;20462;-78
2023/07/17 07:24:23;;;;;;;6.60;5.13;;;19.10;1.00;;;;;;5066715;28;20471;-79
2023/07/17 07:26:50;;;;;;;6.87;4.43;;;19.10;1.00;;;;;;5063432;28;20450;-79
2023/07/17 07:29:16;;;;;;;8.00;5.30;;;19.20;1.00;;;;;;5075098;28;20450;-80
2023/07/17 07:31:43;;;;;;;8.97;5.50;;;19.20;1.00;;;;;;5073353;28;20630;-78
2023/07/17 07:34:10;;;;;;;11.93;7.20;;;19.20;1.00;;;;;;5059543;28;20482;-79
2023/07/17 07:36:37;;;;;;;7.07;5.17;;;19.20;1.00;;;;;;5061162;28;20497;-79
2023/07/17 07:39:05;;;;;;;7.40;5.20;;;19.30;1.00;;;;;;5058946;28;20478;-77
2023/07/17 07:41:33;;;;;;;10.77;5.10;;;19.40;1.00;;;;;;5071125;28;20451;-80
2023/07/17 07:44:00;;;;;;;9.63;5.37;;;19.40;1.00;;;;;;5064109;28;20479;-81
2023/07/17 07:46:27;;;;;;;11.00;4.90;;;19.50;1.00;;;;;;5056454;28;21012;-81
2023/07/17 07:48:54;;;;;;;9.20;3.90;;;19.60;1.00;;;;;;5073513;28;20447;-80
2023/07/17 07:51:21;;;;;;;6.40;4.20;;;19.70;1.00;;;;;;5071009;28;20483;-82
2023/07/17 07:53:48;;;;;;;6.57;4.10;;;19.70;1.00;;;;;;5067876;28;20903;-79
2023/07/17 07:56:15;;;;;;;7.40;3.30;;;19.80;1.00;;;;;;5061076;28;20484;-80
2023/07/17 07:58:43;;;;;;;6.97;3.90;;;19.80;1.00;;;;;;5058018;28;20932;-80
2023/07/17 08:01:09;;;;;;;5.57;3.00;;;19.90;1.00;;;;;;5064536;28;20567;-80
2023/07/17 08:03:37;;;;;;;7.43;3.70;;;19.80;1.00;;;;;;5058861;28;20468;-80
2023/07/17 08:06:04;;;;;;;8.13;3.93;;;19.80;1.00;;;;;;5063688;28;20483;-78
2023/07/17 08:08:31;;;;;;;6.63;4.43;;;19.80;1.00;;;;;;5061610;28;20535;-78
2023/07/17 08:10:58;;;;;;;12.73;3.53;;;19.80;1.00;;;;;;5061153;28;20458;-81
2023/07/17 08:13:25;;;;;;;6.77;4.00;;;19.80;1.00;;;;;;5058628;28;20509;-80
2023/07/17 08:15:53;;;;;;;8.23;3.90;;;19.80;1.00;;;;;;5059024;28;20484;-80
2023/07/17 08:18:20;;;;;;;6.90;3.97;;;19.90;1.00;;;;;;5066347;28;20654;-81
2023/07/17 08:20:47;;;;;;;6.87;2.67;;;20.00;1.00;;;;;;5058528;28;20458;-80
2023/07/17 08:23:14;;;;;;;5.50;3.10;;;19.90;1.00;;;;;;5058670;28;20468;-81
2023/07/17 08:25:40;;;;;;;6.77;3.23;;;20.00;1.00;;;;;;5057460;28;20455;-80
2023/07/17 08:28:07;;;;;;;7.60;3.30;;;20.20;1.00;;;;;;5058942;28;20448;-81
2023/07/17 08:30:34;;;;;;;6.77;3.50;;;20.30;1.00;;;;;;5060728;28;20447;-81
2023/07/17 08:33:02;;;;;;;5.17;3.40;;;20.40;1.00;;;;;;5062309;28;20558;-81
2023/07/17 08:35:30;;;;;;;5.77;3.23;;;20.60;1.00;;;;;;5058721;28;20516;-82
2023/07/17 08:37:57;;;;;;;7.87;3.43;;;20.70;1.00;;;;;;5060306;28;20456;-81
2023/07/17 08:40:26;;;;;;;7.17;3.23;;;20.80;1.00;;;;;;5059506;28;21115;-81
2023/07/17 08:42:56;;;;;;;6.40;2.80;;;20.90;1.00;;;;;;5058693;28;21002;-81
2023/07/17 08:45:23;;;;;;;8.00;4.07;;;21.00;1.00;;;;;;5066285;28;20439;-82
2023/07/17 08:47:52;;;;;;;6.43;4.10;;;21.20;1.00;;;;;;5071182;28;20440;-80
2023/07/17 08:50:22;;;;;;;5.90;2.90;;;21.30;1.00;;;;;;5058701;28;20484;-81
2023/07/17 08:52:50;;;;;;;5.87;3.10;;;21.40;1.00;;;;;;5053777;28;20520;-82
2023/07/17 08:55:17;;;;;;;5.53;3.13;;;21.60;1.00;;;;;;5057374;28;20749;-80
2023/07/17 08:57:46;;;;;;;10.80;4.20;;;21.70;99.90;;;;;;5056626;28;20854;-81
2023/07/17 09:00:15;;;;;;;5.30;3.50;;;21.80;99.90;;;;;;5056685;28;20452;-83
2023/07/17 09:02:42;;;;;;;6.60;3.30;;;21.90;1.00;;;;;;5058418;28;20530;-81
2023/07/17 09:05:09;;;;;;;12.60;3.97;;;22.00;99.90;;;;;;5056658;28;21018;-81
2023/07/17 09:07:37;;;;;;;5.17;2.87;;;22.20;99.90;;;;;;5059670;28;20658;-81
2023/07/17 09:10:15;;;;;;;4.30;2.60;;;22.20;99.90;;;;;;5058994;28;20452;-80
2023/07/17 09:12:43;;;;;;;7.60;3.73;;;22.40;99.90;;;;;;5059847;28;20460;-81
2023/07/17 09:15:14;;;;;;;4.83;3.40;;;22.60;99.90;;;;;;5063681;28;20464;-80
2023/07/17 09:17:41;;;;;;;6.80;3.47;;;22.60;99.90;;;;;;5061758;28;20520;-80
2023/07/17 09:20:10;;;;;;;6.00;3.10;;;22.80;99.90;;;;;;5062136;28;20539;-82
2023/07/17 09:22:38;;;;;;;4.80;2.60;;;22.80;99.90;;;;;;5058035;28;20483;-80
2023/07/17 09:25:08;;;;;;;8.57;3.87;;;22.80;99.90;;;;;;5056374;28;20460;-82
2023/07/17 09:27:46;;;;;;;5.13;2.80;;;22.90;99.90;;;;;;5059014;28;20432;-81
2023/07/17 09:30:15;;;;;;;7.33;3.57;;;22.80;99.90;;;;;;5059289;28;20450;-81
2023/07/17 09:32:42;;;;;;;4.53;2.60;;;22.50;99.90;;;;;;5056220;28;20951;-80
2023/07/17 09:35:11;;;;;;;5.70;3.60;;;22.50;99.90;;;;;;5057986;28;20456;-80
2023/07/17 09:37:41;;;;;;;6.80;3.13;;;22.60;99.90;;;;;;5059323;28;20516;-81
2023/07/17 09:40:11;;;;;;;5.43;2.97;;;22.80;99.90;;;;;;5056569;28;20986;-80
2023/07/17 09:42:40;;;;;;;5.90;3.33;;;23.00;99.90;;;;;;5054409;28;20452;-81
2023/07/17 09:45:08;;;;;;;6.10;2.93;;;23.00;99.90;;;;;;5053550;28;20550;-81
2023/07/17 09:47:36;;;;;;;6.30;3.30;;;23.30;99.90;;;;;;5055102;28;21049;-82
2023/07/17 09:50:03;;;;;;;5.67;3.37;;;23.30;99.90;;;;;;5056259;28;20459;-79
2023/07/17 09:52:31;;;;;;;5.90;3.07;;;23.60;99.90;;;;;;5054684;28;20514;-81
2023/07/17 09:55:01;;;;;;;6.07;2.73;;;23.50;99.90;;;;;;5054674;28;20526;-81
2023/07/17 09:57:29;;;;;;;6.83;3.33;;;23.60;99.90;;;;;;5055280;28;20483;-81
2023/07/17 09:59:58;;;;;;;7.37;2.80;;;23.60;99.90;;;;;;5054680;28;21026;-81
2023/07/17 10:02:30;;;;;;;4.17;2.40;;;23.50;99.90;;;;;;5054128;28;20452;-79
2023/07/17 10:04:59;;;;;;;6.50;2.70;;;23.40;99.90;;;;;;5054340;28;20451;-81
2023/07/17 10:07:29;;;;;;;5.10;2.60;;;23.40;99.90;;;;;;5053942;28;20455;-80
2023/07/17 10:10:00;;;;;;;6.00;2.30;;;23.40;99.90;;;;;;5054991;28;20483;-82
2023/07/17 10:12:27;;;;;;;5.30;2.43;;;23.70;99.90;;;;;;5055378;28;20893;-81
2023/07/17 10:14:55;;;;;;;6.43;2.77;;;23.80;99.90;;;;;;5061114;28;20455;-81
2023/07/17 10:17:28;;;;;;;3.90;2.60;;;24.20;99.90;;;;;;5054469;28;20491;-82
2023/07/17 10:19:58;;;;;;;5.73;2.43;;;24.50;99.90;;;;;;5056363;28;20447;-81
2023/07/17 10:22:32;;;;;;;5.10;3.20;;;24.80;99.90;;;;;;5053852;28;20439;-83
2023/07/17 10:25:08;;;;;;;3.70;2.13;;;25.30;99.90;;;;;;5055163;28;20443;-81
2023/07/17 10:27:39;;;;;;;4.23;2.53;;;25.40;99.90;;;;;;5053400;28;20450;-81
2023/07/17 10:30:23;;;;;;;3.70;2.80;;;25.40;99.90;;;;;;5055058;28;20451;-81
2023/07/17 10:33:06;;;;;;;3.50;2.10;;;25.00;99.90;;;;;;5053427;28;20467;-79
2023/07/17 10:35:44;;;;;;;5.70;2.80;;;24.90;99.90;;;;;;5054179;28;20797;-82
2023/07/17 10:38:12;;;;;;;9.03;2.67;;;24.50;99.90;;;;;;5053642;28;20491;-80
2023/07/17 10:40:40;;;;;;;4.53;2.57;;;24.10;99.90;;;;;;5046968;28;20455;-80
2023/07/17 10:43:14;;;;;;;4.10;2.53;;;24.40;99.90;;;;;;5054416;28;20547;-81
2023/07/17 10:45:41;;;;;;;4.67;2.50;;;24.70;99.90;;;;;;5053465;28;20527;-80
2023/07/17 10:48:08;;;;;;;5.03;2.10;;;24.70;99.90;;;;;;5053723;28;20458;-81
2023/07/17 10:50:35;;;;;;;3.50;1.77;;;24.90;99.90;;;;;;5055012;28;20456;-80
2023/07/17 10:53:03;;;;;;;6.63;2.50;;;24.90;99.90;;;;;;5052752;28;21033;-80
2023/07/17 10:55:30;;;;;;;5.20;2.80;;;24.60;99.90;;;;;;5051965;28;20452;-79
2023/07/17 10:58:00;;;;;;;5.90;2.80;;;24.00;99.90;;;;;;5051358;28;20476;-80
2023/07/17 11:00:27;;;;;;;4.60;2.63;;;23.80;99.90;;;;;;5055929;28;20463;-79
2023/07/17 11:02:56;;;;;;;5.50;2.70;;;23.70;99.90;;;;;;5064579;28;21017;-80
2023/07/17 11:05:23;;;;;;;5.03;2.73;;;23.50;99.90;;;;;;5051719;28;20451;-78
2023/07/17 11:07:50;;;;;;;4.50;2.53;;;23.40;99.90;;;;;;5053551;28;20495;-79
2023/07/17 11:10:17;;;;;;;4.70;2.70;;;23.50;99.90;;;;;;5057745;28;20550;-79
2023/07/17 11:12:44;;;;;;;4.40;2.60;;;23.50;99.90;;;;;;5066948;28;20438;-79
2023/07/17 11:15:19;;;;;;;5.67;2.73;;;23.30;99.90;;;;;;5066741;28;20550;-80
2023/07/17 11:17:47;;;;;;;4.73;2.80;;;23.20;99.90;;;;;;5063727;28;20486;-79
2023/07/17 11:20:14;;;;;;;8.30;2.97;;;23.00;99.90;;;;;;5063767;28;20468;-79
2023/07/17 11:22:41;;;;;;;5.47;2.67;;;22.80;99.90;;;;;;5055944;28;20490;-80
2023/07/17 11:25:10;;;;;;;3.63;2.47;;;22.70;99.90;;;;;;5057451;28;20459;-78
2023/07/17 11:27:37;;;;;;;6.43;2.90;;;22.50;99.90;;;;;;5056459;28;20451;-79
2023/07/17 11:30:19;;;;;;;8.73;3.43;;;22.60;99.90;;;;;;5056562;28;21214;-78
2023/07/17 11:32:56;;;;;;;5.37;3.00;;;22.80;99.90;;;;;;5056897;28;20467;-79
2023/07/17 11:35:23;;;;;;;5.70;2.53;;;22.80;99.90;;;;;;5055710;28;20451;-79
2023/07/17 11:37:50;;;;;;;7.90;3.43;;;23.10;99.90;;;;;;5057174;28;20567;-79
2023/07/17 11:40:16;;;;;;;7.93;3.17;;;23.10;99.90;;;;;;5055934;28;20459;-79
2023/07/17 11:42:53;;;;;;;7.43;3.20;;;23.10;99.90;;;;;;5051189;28;20447;-79
2023/07/17 11:45:24;;;;;;;5.43;3.30;;;23.00;99.90;;;;;;5063079;22;20492;-83
2023/07/17 11:47:52;;;;;;;14.33;3.90;;;22.80;99.90;;;;;;5044015;28;20456;-80
2023/07/17 11:50:20;;;;;;;4.57;3.27;;;22.70;99.90;;;;;;5047147;28;20474;-81
2023/07/17 11:52:47;;;;;;;3.57;2.50;;;23.30;99.90;;;;;;5056271;28;21000;-81
2023/07/17 11:55:14;;;;;;;6.50;3.70;;;24.00;99.90;;;;;;5033600;28;20841;-81
2023/07/17 11:57:50;;;;;;;8.07;3.90;;;24.30;99.90;;;;;;5035909;28;20499;-82
2023/07/17 12:00:18;;;;;;;4.70;2.40;;;24.20;99.90;;;;;;5030847;28;20457;-79
2023/07/17 12:02:47;;;;;;;6.23;2.70;;;24.00;99.90;;;;;;5023362;28;20787;-84
2023/07/17 12:05:14;;;;;;;5.37;2.97;;;24.20;99.90;;;;;;5011743;28;20474;-81
2023/07/17 12:07:41;;;;;;;5.77;2.80;;;24.50;99.90;;;;;;5020469;28;20450;-79
2023/07/17 12:10:09;;;;;;;6.40;3.33;;;24.50;99.90;;;;;;5020716;28;20832;-82
2023/07/17 12:12:36;;;;;;;10.70;3.77;;;24.30;99.90;;;;;;5022092;28;20463;-82
2023/07/17 12:15:02;;;;;;;5.70;3.17;;;24.40;99.90;;;;;;5023498;28;20481;-81
2023/07/17 12:17:29;;;;;;;5.30;3.40;;;24.10;99.90;;;;;;5020851;28;20484;-82
2023/07/17 12:19:57;;;;;;;4.57;3.13;;;23.90;99.90;;;;;;5022067;28;20990;-82
2023/07/17 12:22:24;;;;;;;5.20;2.77;;;23.90;99.90;;;;;;5030840;28;20456;-82
2023/07/17 12:24:51;;;;;;;6.43;3.73;;;23.60;99.90;;;;;;5023340;28;20473;-80
2023/07/17 12:27:18;;;;;;;6.53;3.20;;;23.40;99.90;;;;;;5025312;28;20971;-82
2023/07/17 12:29:45;;;;;;;4.80;3.30;;;23.20;99.90;;;;;;5024483;28;20961;-82
2023/07/17 12:32:12;;;;;;;6.00;3.73;;;23.30;99.90;;;;;;5016326;28;20528;-81
2023/07/17 12:34:39;;;;;;;6.47;3.30;;;23.50;99.90;;;;;;5024246;28;20477;-80
2023/07/17 12:37:07;;;;;;;6.43;3.53;;;24.00;99.90;;;;;;5021422;28;20943;-82
2023/07/17 12:39:34;;;;;;;5.10;2.93;;;24.60;99.90;;;;;;5023375;28;20701;-81
2023/07/17 12:42:01;;;;;;;7.77;3.57;;;25.10;99.90;;;;;;5026058;28;20461;-82
2023/07/17 12:44:29;;;;;;;5.50;2.97;;;25.20;99.90;;;;;;5026453;28;21079;-80
2023/07/17 12:46:56;;;;;;;7.40;3.10;;;25.50;99.90;;;;;;5016544;28;20488;-79
2023/07/17 12:49:22;;;;;;;9.30;3.83;;;25.50;99.90;;;;;;5014578;28;20548;-79
2023/07/17 12:51:49;;;;;;;5.40;3.53;;;25.80;99.90;;;;;;5020412;28;20457;-81